map of KHZD home
KHZD - Airport
Location
City:  Huntingdon, Tennessee, United States
Name:Carroll County Airport
ICAO:KHZD
FAA LID:HZD

Details
Type:Airport (Airfield)
Use:Public/Civil
Latitude:3605'21"N (36.089297)
Longitude:8827'48"W (-88.463298)
Datum:WGS 1984
Elevation:496 ft (151 m)
Variation:2.63W (WMM2015 magnetic declination)
-0.09 annual change
Runways:1
Longest:5507 × 100 ft (1679 × 30.5 m), paved

Time
Time Zone:UTC-6 (DST-5)
Local Time:

Weather
METAR:KHZD 112135Z AUTO 22007KT 10SM CLR 09/M03 A3023 RMK A01

Related Locations
Nearby:
Farthest:YAUG: 11105 mi / 17872 km
Augusta [Augusta Airport], WA, AU

Find:

   beyond  
but within

Other Information
Maps:
NOTAMs:
Links:
Sources:

  
  • flag of United States
  • flag of Tennessee
  

Sectional Chart

Flight Planning
at skyvector.com

Satellite Image

Google Maps Satellite view

 

Copyright © 2004-2018 Karl L. Swartz. All rights reserved.
The Great Circle Mapper name and logo are trademarks of the Great Circle Mapper.
All other trademarks mentioned herein belong to their respective owners.
Please see credits for attibutions and further copyright information.

  Follow gcmap on Facebook Follow gcmap on Twitter Follow gcmap on Google+ GCmap on LinkedIn

hCard Microformat

Geo Microformat